Detalii statie PETRESTI PETRESTI [0000197D]

Toti senzorii

Date Temperatura solului [C]Precipitatii [mm]Voltaj baterie [mV]Leaf Wetness [Min]HC Air temperature [C]HC Relative humidity [%]Punctul de roua [C]
medieminmaxsumaultimatimpmedieminmaxmediemediemin
2019-08-15 20:00:00 0 6748 19.42 18.93 19.9 61.1 11.5 11.4
2019-08-15 21:00:00 0 6718 18.45 17.79 18.86 65.91 11.8 11.6
2019-08-15 22:00:00 0 6738 17.28 16.86 17.58 73.63 12.3 12
2019-08-15 23:00:00 0 6728 15.84 15.05 16.66 81.8 12.5 12.2
2019-08-16 00:00:00 0 6698 14.62 14.16 14.97 90.56 12.9 12.7
2019-08-16 01:00:00 0 6708 14.05 13.85 14.31 94.69 13.1 12.9
2019-08-16 02:00:00 0 6678 13.32 13.01 13.81 96.15 12.6 12.5
2019-08-16 03:00:00 0 6698 12.33 11.98 12.98 98.8 12 11.6
2019-08-16 04:00:00 0 6668 12.12 11.86 12.33 99.95 12 11.8
2019-08-16 05:00:00 0 6660 11.89 11.72 12.04 100 11.8 11.7
2019-08-16 06:00:00 0 6688 12.06 11.95 12.17 100 12 11.9
2019-08-16 07:00:00 0 6678 12.32 12.17 12.54 99.12 12 11.9
2019-08-16 08:00:00 0 6688 12.66 11.97 14.46 97.03 12 11.6
2019-08-16 09:00:00 0 6738 17.85 15.14 19.97 72.01 12.4 11.9
2019-08-16 10:00:00 0 6756 20.95 19.93 22.52 58.07 12.1 11.3
2019-08-16 11:00:00 0 6844 21.79 20.94 23.56 50.05 10.7 9.8
2019-08-16 12:00:00 0 6962 22.57 21.54 23.59 43.74 9.4 8.8
2019-08-16 13:00:00 0 7196 25.16 23.82 26.13 35.61 8.5 7.1
2019-08-16 14:00:00 0 6884 26.16 24.54 27.34 32.65 8.2 7.4
2019-08-16 15:00:00 0 7206 25.98 24.21 27.36 33.59 8.5 7.5
2019-08-16 16:00:00 0 7196 26.37 24.87 27.6 32.27 8.1 7.5
2019-08-16 17:00:00 0 6932 26.05 25.31 26.57 31.9 7.7 7
2019-08-16 18:00:00 0 6844 25.61 25.05 26.28 32.28 7.5 7.2
2019-08-16 19:00:00 0 6854 23.37 22.16 24.91 39.14 8.4 7.5
2019-08-16 20:00:00 0 6756 20.14 18.28 22.08 51.79 9.7 9.3
2019-08-16 21:00:00 0 6718 18.11 17.52 18.48 62.33 10.6 10.1
2019-08-16 22:00:00 0 6718 16.94 16.18 17.37 68.7 11 10.7
2019-08-16 23:00:00 0 6738 15.97 15.6 16.33 72.89 10.9 10.4
2019-08-17 00:00:00 0 6708 15.95 15.34 16.68 70.52 10.4 10.2
2019-08-17 01:00:00 0 6718 14.64 13.37 15.65 77.73 10.6 10.1
2019-08-17 02:00:00 0 6718 14.16 13.95 14.31 84.48 11.4 11.1
2019-08-17 03:00:00 0 6688 13.85 13.36 14.28 85.64 11.3 11.1
2019-08-17 04:00:00 0 6708 13.11 12.73 13.35 89.65 11.3 11
2019-08-17 05:00:00 0 6698 12.56 12.01 12.9 91.55 11.1 10.6
2019-08-17 06:00:00 0 6698 12.55 12.21 12.85 92.76 11.2 10.9
2019-08-17 07:00:00 0 6708 13.66 12.96 14.28 89.01 11.7 11.6
2019-08-17 08:00:00 0 6718 14.53 14.1 15.41 84.58 11.8 11.6
2019-08-17 09:00:00 0 6826 16.43 15.46 17.31 76.34 12.1 11.8
2019-08-17 10:00:00 0 6834 18.49 17.49 19.36 65.13 11.6 11.4
2019-08-17 11:00:00 0 6904 21.21 19.22 23.93 55.53 11.7 11.1
2019-08-17 12:00:00 0 7166 23.65 22.58 24.58 39.96 8.9 5.9
2019-08-17 13:00:00 0 7186 26.66 25.29 27.75 32.38 8.5 6.9
2019-08-17 14:00:00 0 7196 27.05 25.85 27.93 33.99 9.5 8.7
2019-08-17 15:00:00 0 7196 27.6 27 28.86 35.05 10.5 9.9
2019-08-17 16:00:00 0 7196 27.73 26.45 28.49 35.25 10.7 9.9
2019-08-17 17:00:00 0 6932 27.21 26.45 28.29 36.76 10.8 10.4
2019-08-17 18:00:00 0 6826 26.89 26.3 27.47 37.61 10.9 10.7
2019-08-17 19:00:00 0 6756 24.89 23.74 26.16 43.46 11.4 10.9